EDT,Max TemperatureF,Mean TemperatureF,Min TemperatureF,Max Dew PointF,MeanDew PointF,Min DewpointF,Max Humidity, Mean Humidity, Min Humidity, Max Sea Level PressureIn, Mean Sea Level PressureIn, Min Sea Level PressureIn, Max VisibilityMiles, Mean VisibilityMiles, Min VisibilityMiles, Max Wind SpeedMPH, Mean Wind SpeedMPH, Max Gust SpeedMPH,PrecipitationIn, CloudCover, Events, WindDirDegrees
2012-10-1,69,60,51,54,48,45,89,70,50,29.97,29.87,29.81,10,10,10,16,8,23,0.00,0,,279
2012-10-2,66,62,57,61,57,53,96,87,68,30.04,30.00,29.96,10,5,1,7,2,,0.46,8,Rain,93
2012-10-3,68,64,62,66,64,61,100,97,93,30.12,30.06,29.99,2,0,0,6,1,,0.17,8,Fog-Rain,101
2012-10-4,70,67,62,67,66,61,100,95,88,30.14,30.08,30.04,2,1,0,14,2,21,1.01,7,Fog-Rain-Thunderstorm,68
2012-10-5,77,67,59,61,59,56,100,82,50,30.06,30.01,29.92,10,5,0,8,5,,0.02,0,Fog,297
2012-10-6,75,64,52,59,53,41,93,72,57,29.97,29.86,29.75,10,8,3,20,4,29,0.00,2,,297
2012-10-7,53,48,44,45,41,36,86,73,55,30.10,30.06,29.98,10,9,6,12,5,20,0.14,5,Rain,329
2012-10-8,53,48,43,45,41,39,89,76,59,30.29,30.22,30.11,10,10,10,8,4,,0.02,3,Rain,322
2012-10-9,57,52,48,49,46,42,83,77,72,30.24,30.17,30.09,10,10,10,10,7,,0.00,8,Rain,46
2012-10-10,91,71,51,57,48,38,89,68,31,30.07,29.91,29.78,10,7,1,21,8,28,0.27,6,Rain,27
2012-10-11,57,51,45,39,34,30,74,55,36,30.19,30.11,29.94,10,10,10,21,10,26,0.00,0,,291
2012-10-12,55,45,35,42,35,26,82,65,46,30.41,30.18,30.06,10,10,10,18,5,25,0.01,2,,319
2012-10-13,52,41,30,38,26,20,79,55,28,30.52,30.43,30.31,10,10,10,9,4,,0.00,0,,272
2012-10-14,69,60,51,55,48,38,81,68,51,30.26,30.11,29.95,10,10,10,13,7,25,0.00,3,Rain,200
2012-10-15,71,64,57,61,58,55,94,83,64,29.93,29.73,29.64,10,8,2,8,5,21,0.23,6,Rain,217
2012-10-16,57,50,42,53,38,35,84,62,45,29.93,29.77,29.64,10,10,10,24,13,33,0.00,2,,304
2012-10-17,59,47,37,45,38,34,93,73,46,30.03,29.97,29.92,10,10,10,7,3,,0.00,0,,307
2012-10-18,64,52,41,54,47,39,97,79,58,30.06,30.01,29.96,10,8,4,13,4,21,0.00,3,,126
2012-10-19,64,62,59,63,61,53,97,94,78,29.95,29.79,29.68,10,3,0,16,9,25,1.28,8,Fog-Rain,140
2012-10-20,70,60,52,63,52,37,100,75,36,29.82,29.70,29.65,10,6,0,10,4,18,0.00,4,Fog,236
2012-10-21,63,56,48,42,39,37,71,56,41,29.99,29.92,29.82,10,10,10,18,10,26,0.00,0,,283
2012-10-22,64,56,48,43,41,38,74,55,42,30.08,30.03,29.99,10,10,10,16,10,23,0.00,0,,294
2012-10-23,64,54,48,53,47,42,93,77,56,30.12,30.09,30.06,10,10,6,9,4,,0.07,5,Rain,327
2012-10-24,55,54,53,53,51,48,97,88,80,30.21,30.14,30.10,10,7,1,7,3,,0.01,8,Rain,63
2012-10-25,59,55,51,52,49,48,89,81,69,30.28,30.24,30.21,10,10,10,7,2,,0.01,8,Rain,98
2012-10-26,64,58,53,56,54,50,93,83,70,30.24,30.18,30.12,10,10,10,5,1,,0.00,7,,294
2012-10-27,63,60,57,56,53,51,90,78,67,30.11,30.00,29.93,10,9,6,8,2,,0.00,6,,64
2012-10-28,57,55,53,50,46,40,77,69,57,29.91,29.81,29.67,10,10,10,18,9,29,0.00,6,,45
2012-10-29,63,56,52,59,51,45,88,83,74,29.65,29.19,28.64,10,6,1,31,19,54,0.43,8,Rain,25
2012-10-30,53,52,50,48,45,45,82,76,72,29.47,29.44,29.39,10,10,4,21,16,34,0.00,8,Rain,167
2012-10-31,48,46,44,43,37,36,82,71,62,29.57,29.52,29.47,10,10,10,7,3,,0.00,7,Rain,265